Time;durP1;ratioP1;P1;durP2;ratioP2;P2;SDS_P1;SDS_P2;PMS_P1;PMS_P2;Temp;Humidity;BMP_temperature;BMP_pressure;BME280_temperature;BME280_humidity;BME280_pressure;Samples;Min_cycle;Max_cycle;Signal;HPM_P1;HPM_P2
2022/10/11 00:00:04;;;;;;;9.55;4.35;;;;;;;;;;1037688;28;20430;-77
2022/10/11 00:00:35;;;;;;;9.07;4.45;;;;;;;;;;1036989;28;20025;-77
2022/10/11 00:01:06;;;;;;;7.07;4.03;;;;;;;;;;1037271;28;20021;-77
2022/10/11 00:01:36;;;;;;;9.05;4.40;;;;;;;;;;1037396;28;20022;-76
2022/10/11 00:02:07;;;;;;;11.05;3.95;;;;;;;;;;1037529;28;20597;-77
2022/10/11 00:02:37;;;;;;;16.23;5.80;;;;;;;;;;1036672;28;20049;-77
2022/10/11 00:03:08;;;;;;;18.10;6.20;;;;;;;;;;1037310;28;20107;-77
2022/10/11 00:03:38;;;;;;;14.60;6.38;;;;;;;;;;1037411;28;20037;-77
2022/10/11 00:04:09;;;;;;;17.83;7.32;;;;;;;;;;1036920;28;20071;-77
2022/10/11 00:04:40;;;;;;;23.48;7.05;;;;;;;;;;1037630;28;20152;-77
2022/10/11 00:05:10;;;;;;;15.32;8.05;;;;;;;;;;1037869;28;20026;-76
2022/10/11 00:05:42;;;;;;;17.45;7.38;;;;;;;;;;1037871;28;20390;-76
2022/10/11 00:06:13;;;;;;;20.55;6.57;;;;;;;;;;1037360;28;20017;-76
2022/10/11 00:06:45;;;;;;;16.33;7.55;;;;;;;;;;1036896;28;20429;-76
2022/10/11 00:07:17;;;;;;;20.42;8.43;;;;;;;;;;1035319;28;20026;-76
2022/10/11 00:07:47;;;;;;;10.85;5.97;;;;;;;;;;1035863;28;20471;-77
2022/10/11 00:08:18;;;;;;;21.98;6.55;;;;;;;;;;1037167;28;20041;-76
2022/10/11 00:08:48;;;;;;;19.30;6.60;;;;;;;;;;1037923;28;20028;-77
2022/10/11 00:09:19;;;;;;;11.60;6.55;;;;;;;;;;1037593;28;20019;-77
2022/10/11 00:09:49;;;;;;;21.48;8.40;;;;;;;;;;1037397;28;20040;-77
2022/10/11 00:10:20;;;;;;;17.35;6.47;;;;;;;;;;1037201;28;20021;-77
2022/10/11 00:10:58;;;;;;;20.10;5.78;;;;;;;;;;1037539;28;20048;-77
2022/10/11 00:11:29;;;;;;;13.55;6.50;;;;;;;;;;1037224;28;20459;-77
2022/10/11 00:11:59;;;;;;;18.25;6.43;;;;;;;;;;1037605;28;20057;-77
2022/10/11 00:12:30;;;;;;;24.70;6.65;;;;;;;;;;1037747;28;20521;-77
2022/10/11 00:13:00;;;;;;;20.48;7.10;;;;;;;;;;1037787;28;20439;-77
2022/10/11 00:13:32;;;;;;;20.63;6.88;;;;;;;;;;1037549;28;20436;-77
2022/10/11 00:14:02;;;;;;;10.60;4.07;;;;;;;;;;1037871;28;20401;-77
2022/10/11 00:14:33;;;;;;;13.15;6.32;;;;;;;;;;1037342;28;20049;-77
2022/10/11 00:15:05;;;;;;;20.30;6.68;;;;;;;;;;1037333;28;20026;-77
2022/10/11 00:15:38;;;;;;;11.88;4.68;;;;;;;;;;1037530;28;20018;-77
2022/10/11 00:16:10;;;;;;;15.13;4.60;;;;;;;;;;1036282;28;20533;-76
2022/10/11 00:16:43;;;;;;;11.60;4.72;;;;;;;;;;1038858;28;20028;-76
2022/10/11 00:17:13;;;;;;;20.10;6.57;;;;;;;;;;1037705;28;20072;-76
2022/10/11 00:17:44;;;;;;;10.90;4.82;;;;;;;;;;1037635;28;20068;-77
2022/10/11 00:18:15;;;;;;;15.25;5.78;;;;;;;;;;1037622;28;20030;-77
2022/10/11 00:18:45;;;;;;;12.55;5.55;;;;;;;;;;1037367;28;20069;-77
2022/10/11 00:19:16;;;;;;;14.65;4.82;;;;;;;;;;1035906;28;20148;-77
2022/10/11 00:19:47;;;;;;;17.92;6.28;;;;;;;;;;1036869;28;20464;-77
2022/10/11 00:20:17;;;;;;;10.32;5.53;;;;;;;;;;1037517;28;20021;-77
2022/10/11 00:20:48;;;;;;;11.50;5.68;;;;;;;;;;1037361;28;20036;-77
2022/10/11 00:21:20;;;;;;;17.52;6.45;;;;;;;;;;1037690;28;20045;-77
2022/10/11 00:21:51;;;;;;;18.05;7.38;;;;;;;;;;1037694;28;20060;-77
2022/10/11 00:22:21;;;;;;;15.88;8.13;;;;;;;;;;1037584;28;20088;-77
2022/10/11 00:22:52;;;;;;;19.70;6.65;;;;;;;;;;1037820;28;20021;-77
2022/10/11 00:23:22;;;;;;;21.38;7.13;;;;;;;;;;1036714;28;20116;-77
2022/10/11 00:23:53;;;;;;;37.85;7.38;;;;;;;;;;1037743;28;20454;-77
2022/10/11 00:24:23;;;;;;;18.05;6.57;;;;;;;;;;1037097;28;20025;-77
2022/10/11 00:24:54;;;;;;;16.73;7.72;;;;;;;;;;1037553;28;20429;-77
2022/10/11 00:25:25;;;;;;;19.25;8.45;;;;;;;;;;1038109;28;20037;-77
2022/10/11 00:25:56;;;;;;;25.25;8.35;;;;;;;;;;1037514;28;20116;-77
2022/10/11 00:26:27;;;;;;;21.35;8.60;;;;;;;;;;1037584;28;20022;-77
2022/10/11 00:26:58;;;;;;;26.63;9.80;;;;;;;;;;1037521;28;20063;-77
2022/10/11 00:27:28;;;;;;;22.80;9.65;;;;;;;;;;1036748;28;20108;-77
2022/10/11 00:27:59;;;;;;;26.85;9.35;;;;;;;;;;1033196;28;20108;-77
2022/10/11 00:28:29;;;;;;;20.85;9.13;;;;;;;;;;1033877;28;20044;-77
2022/10/11 00:29:00;;;;;;;18.65;8.10;;;;;;;;;;1037518;28;20029;-77
2022/10/11 00:29:31;;;;;;;20.38;8.90;;;;;;;;;;1037242;28;20029;-76
2022/10/11 00:30:02;;;;;;;30.83;9.43;;;;;;;;;;1037461;28;20017;-76
2022/10/11 00:30:32;;;;;;;25.02;8.80;;;;;;;;;;1036922;28;20040;-77
2022/10/11 00:31:07;;;;;;;24.23;9.85;;;;;;;;;;1037557;28;20022;-77
2022/10/11 00:31:38;;;;;;;19.25;7.45;;;;;;;;;;1034897;28;20551;-76
2022/10/11 00:32:09;;;;;;;18.55;7.22;;;;;;;;;;1035552;28;20018;-77
2022/10/11 00:32:39;;;;;;;14.55;6.45;;;;;;;;;;1033237;28;20056;-76
2022/10/11 00:33:10;;;;;;;19.23;8.50;;;;;;;;;;1034325;28;20029;-76
2022/10/11 00:33:40;;;;;;;21.45;8.93;;;;;;;;;;1036344;28;20458;-76
2022/10/11 00:34:12;;;;;;;23.50;9.43;;;;;;;;;;1036885;28;20484;-76
2022/10/11 00:34:42;;;;;;;21.20;9.02;;;;;;;;;;1037727;28;20036;-76
2022/10/11 00:35:13;;;;;;;33.58;9.52;;;;;;;;;;1037722;28;20024;-76
2022/10/11 00:35:44;;;;;;;21.40;7.72;;;;;;;;;;1037859;28;20033;-76
2022/10/11 00:36:16;;;;;;;24.23;8.65;;;;;;;;;;1037537;28;20679;-77
2022/10/11 00:36:46;;;;;;;19.50;8.02;;;;;;;;;;1036586;28;20017;-77
2022/10/11 00:37:17;;;;;;;27.08;8.00;;;;;;;;;;1036286;28;20060;-77
2022/10/11 00:37:48;;;;;;;22.60;7.75;;;;;;;;;;1037392;28;20033;-77
2022/10/11 00:38:19;;;;;;;14.55;7.45;;;;;;;;;;1036987;28;20077;-77
2022/10/11 00:38:49;;;;;;;26.15;8.68;;;;;;;;;;1037533;28;20197;-77
2022/10/11 00:39:20;;;;;;;27.20;9.50;;;;;;;;;;1037669;28;20033;-77
2022/10/11 00:39:51;;;;;;;21.08;9.52;;;;;;;;;;1037070;28;20090;-77
2022/10/11 00:40:21;;;;;;;26.30;10.70;;;;;;;;;;1036477;28;20056;-77
2022/10/11 00:40:52;;;;;;;18.35;8.55;;;;;;;;;;1037513;28;20478;-77
2022/10/11 00:41:22;;;;;;;14.18;8.57;;;;;;;;;;1037317;28;20021;-76
2022/10/11 00:41:53;;;;;;;19.80;7.43;;;;;;;;;;1037333;28;20103;-76
2022/10/11 00:42:24;;;;;;;18.83;7.55;;;;;;;;;;1037168;28;20480;-76
2022/10/11 00:42:55;;;;;;;24.15;9.07;;;;;;;;;;1037216;28;20058;-77
2022/10/11 00:43:28;;;;;;;24.23;9.38;;;;;;;;;;1032759;28;20514;-77
2022/10/11 00:44:08;;;;;;;20.92;9.50;;;;;;;;;;1033799;28;20121;-77
2022/10/11 00:44:41;;;;;;;19.80;8.50;;;;;;;;;;1037418;28;20076;-77
2022/10/11 00:45:27;;;;;;;26.80;8.40;;;;;;;;;;1041236;28;20017;-77
2022/10/11 00:45:59;;;;;;;19.70;8.95;;;;;;;;;;1039647;28;20025;-77
2022/10/11 00:46:31;;;;;;;15.05;7.03;;;;;;;;;;1041065;28;20107;-77
2022/10/11 00:47:20;;;;;;;17.85;8.43;;;;;;;;;;1042034;23;20035;-75
2022/10/11 00:47:56;;;;;;;17.98;8.50;;;;;;;;;;1029493;28;20412;-75
2022/10/11 00:48:29;;;;;;;25.05;9.57;;;;;;;;;;1029267;28;20411;-75
2022/10/11 00:49:10;;;;;;;21.77;9.55;;;;;;;;;;1029396;28;20027;-75
2022/10/11 00:49:59;;;;;;;24.60;8.43;;;;;;;;;;1029401;28;20487;-75
2022/10/11 00:50:33;;;;;;;22.08;7.95;;;;;;;;;;1029455;28;20902;-75
2022/10/11 00:51:05;;;;;;;17.42;8.40;;;;;;;;;;1029556;28;20493;-75
2022/10/11 00:51:41;;;;;;;16.83;7.65;;;;;;;;;;1029424;28;20577;-75
2022/10/11 00:52:30;;;;;;;28.25;7.72;;;;;;;;;;1031221;28;20026;-75
2022/10/11 00:53:03;;;;;;;17.17;7.00;;;;;;;;;;1031630;28;20092;-75
2022/10/11 00:53:34;;;;;;;31.65;10.63;;;;;;;;;;1031421;28;20109;-75
2022/10/11 00:54:05;;;;;;;19.52;8.45;;;;;;;;;;1031399;28;20010;-75
2022/10/11 00:54:37;;;;;;;15.23;7.35;;;;;;;;;;1031046;28;20502;-75
2022/10/11 00:55:09;;;;;;;26.73;9.00;;;;;;;;;;1031242;28;20518;-75
2022/10/11 00:55:44;;;;;;;19.48;7.68;;;;;;;;;;1031158;28;20018;-75
2022/10/11 00:56:25;;;;;;;18.80;6.53;;;;;;;;;;1031045;28;20029;-75
2022/10/11 00:57:00;;;;;;;17.40;6.43;;;;;;;;;;1030992;28;20037;-75
2022/10/11 00:57:33;;;;;;;17.98;7.20;;;;;;;;;;1031311;28;20117;-75
2022/10/11 00:58:05;;;;;;;12.90;7.30;;;;;;;;;;1031351;28;20024;-75
2022/10/11 00:58:36;;;;;;;14.05;5.88;;;;;;;;;;1031198;28;20112;-75
2022/10/11 00:59:13;;;;;;;18.23;6.63;;;;;;;;;;1029981;28;20019;-75
2022/10/11 00:59:45;;;;;;;12.05;5.68;;;;;;;;;;1029716;28;20156;-75
2022/10/11 01:00:17;;;;;;;16.98;6.10;;;;;;;;;;1031202;28;20019;-75
2022/10/11 01:00:48;;;;;;;13.35;6.13;;;;;;;;;;1031611;28;20026;-75
2022/10/11 01:01:19;;;;;;;22.90;7.43;;;;;;;;;;1031585;28;20530;-75
2022/10/11 01:01:50;;;;;;;14.32;6.70;;;;;;;;;;1031441;28;20034;-75
2022/10/11 01:02:22;;;;;;;18.05;6.35;;;;;;;;;;1031468;28;20172;-75
2022/10/11 01:02:52;;;;;;;24.42;7.30;;;;;;;;;;1031895;28;20378;-75
2022/10/11 01:03:34;;;;;;;17.25;6.05;;;;;;;;;;1031176;28;20030;-75
2022/10/11 01:04:04;;;;;;;19.92;8.38;;;;;;;;;;1029971;28;20039;-75
2022/10/11 01:04:35;;;;;;;19.83;8.90;;;;;;;;;;1030824;28;20014;-75
2022/10/11 01:05:07;;;;;;;13.13;8.23;;;;;;;;;;1031243;28;20506;-75
2022/10/11 01:05:38;;;;;;;21.20;6.43;;;;;;;;;;1030627;28;20022;-75
2022/10/11 01:06:09;;;;;;;17.58;8.00;;;;;;;;;;1031107;28;20358;-75
2022/10/11 01:06:40;;;;;;;17.40;8.20;;;;;;;;;;1031412;28;21133;-75
2022/10/11 01:07:11;;;;;;;19.80;7.68;;;;;;;;;;1030794;28;20037;-75
2022/10/11 01:07:43;;;;;;;25.50;9.40;;;;;;;;;;1030131;28;20019;-75
2022/10/11 01:08:14;;;;;;;15.57;7.13;;;;;;;;;;1026929;28;20121;-75
2022/10/11 01:08:45;;;;;;;24.73;10.02;;;;;;;;;;1027733;28;20019;-75
2022/10/11 01:09:16;;;;;;;27.08;9.48;;;;;;;;;;1031267;28;20034;-75
2022/10/11 01:09:47;;;;;;;13.90;8.10;;;;;;;;;;1031058;28;20113;-75
2022/10/11 01:10:17;;;;;;;14.65;8.15;;;;;;;;;;1031398;28;20073;-75
2022/10/11 01:10:48;;;;;;;39.92;10.73;;;;;;;;;;1032119;28;20057;-75
2022/10/11 01:11:20;;;;;;;15.35;6.78;;;;;;;;;;1031955;28;20014;-75
2022/10/11 01:11:52;;;;;;;23.67;8.50;;;;;;;;;;1031085;28;20037;-75
2022/10/11 01:12:23;;;;;;;11.40;6.28;;;;;;;;;;1031404;28;20034;-75
2022/10/11 01:13:12;;;;;;;35.97;7.97;;;;;;;;;;1031432;28;20073;-75
2022/10/11 01:13:50;;;;;;;19.15;8.50;;;;;;;;;;1030785;28;20026;-75
2022/10/11 01:14:21;;;;;;;24.05;7.53;;;;;;;;;;1031141;28;20027;-75
2022/10/11 01:15:10;;;;;;;23.73;7.32;;;;;;;;;;1032111;28;20023;-75
2022/10/11 01:15:44;;;;;;;23.58;7.60;;;;;;;;;;1031115;28;20030;-76
2022/10/11 01:16:27;;;;;;;23.13;7.43;;;;;;;;;;1035101;28;20025;-75
2022/10/11 01:17:07;;;;;;;24.33;7.30;;;;;;;;;;1031882;28;20438;-75
2022/10/11 01:17:58;;;;;;;22.40;8.32;;;;;;;;;;1031181;28;20030;-75
2022/10/11 01:18:45;;;;;;;23.63;6.65;;;;;;;;;;1031347;28;20530;-75
2022/10/11 01:19:33;;;;;;;26.65;6.00;;;;;;;;;;1031812;28;20022;-75
2022/10/11 01:20:19;;;;;;;23.38;6.78;;;;;;;;;;1031133;28;20479;-75
2022/10/11 01:21:19;;;;;;;19.17;6.95;;;;;;;;;;1031458;28;20160;-75
2022/10/11 01:22:07;;;;;;;24.88;8.90;;;;;;;;;;1011785;29;20483;-75
2022/10/11 01:22:38;;;;;;;27.33;7.90;;;;;;;;;;1031420;28;20081;-75
2022/10/11 01:23:27;;;;;;;16.58;7.50;;;;;;;;;;1026313;28;20165;-75
2022/10/11 01:23:57;;;;;;;13.30;5.43;;;;;;;;;;1027460;28;20050;-75
2022/10/11 01:24:34;;;;;;;36.17;7.97;;;;;;;;;;1028921;28;20506;-75
2022/10/11 01:25:22;;;;;;;15.75;7.35;;;;;;;;;;1031319;28;20115;-75
2022/10/11 01:25:53;;;;;;;18.85;8.65;;;;;;;;;;1031104;28;20839;-75
2022/10/11 01:26:26;;;;;;;18.33;8.20;;;;;;;;;;1030919;28;20026;-75
2022/10/11 01:27:05;;;;;;;18.58;7.18;;;;;;;;;;1031252;28;20934;-75
2022/10/11 01:27:36;;;;;;;17.67;5.80;;;;;;;;;;1026268;28;20018;-75
2022/10/11 01:28:17;;;;;;;20.45;6.45;;;;;;;;;;1028267;28;20034;-75
2022/10/11 01:28:55;;;;;;;28.83;7.68;;;;;;;;;;1031018;28;20465;-75
2022/10/11 01:29:45;;;;;;;25.35;7.43;;;;;;;;;;1031265;28;20109;-75
2022/10/11 01:30:18;;;;;;;31.23;10.93;;;;;;;;;;1030745;28;20038;-75
2022/10/11 01:30:50;;;;;;;41.33;12.65;;;;;;;;;;1025871;28;20093;-75
2022/10/11 01:31:26;;;;;;;30.30;11.98;;;;;;;;;;1029149;28;20125;-75
2022/10/11 01:32:05;;;;;;;43.30;13.77;;;;;;;;;;1028087;28;20454;-75
2022/10/11 01:32:43;;;;;;;43.00;13.13;;;;;;;;;;1033592;28;20128;-75
2022/10/11 01:33:23;;;;;;;36.10;11.07;;;;;;;;;;1034487;28;20026;-75
2022/10/11 01:33:56;;;;;;;19.33;10.02;;;;;;;;;;1031488;28;20818;-76
2022/10/11 01:34:32;;;;;;;29.00;11.85;;;;;;;;;;1030436;28;20034;-76
2022/10/11 01:35:12;;;;;;;41.25;13.52;;;;;;;;;;1028942;28;20031;-76
2022/10/11 01:35:43;;;;;;;;;;;;;;;;;;1029082;28;20113;-76
2022/10/11 01:36:14;;;;;;;21.58;9.77;;;;;;;;;;1029488;28;19914;-76
2022/10/11 01:37:08;;;;;;;32.58;10.93;;;;;;;;;;1031207;28;20121;-76
2022/10/11 01:37:42;;;;;;;30.33;11.30;;;;;;;;;;1022467;28;20028;-75
2022/10/11 01:38:16;;;;;;;31.40;12.65;;;;;;;;;;1031516;28;20026;-75
2022/10/11 01:38:52;;;;;;;22.40;11.85;;;;;;;;;;1035372;28;20117;-75
2022/10/11 01:39:24;;;;;;;30.17;10.18;;;;;;;;;;1034069;28;20030;-75
2022/10/11 01:40:13;;;;;;;41.38;13.80;;;;;;;;;;1033659;28;20489;-76
2022/10/11 01:40:53;;;;;;;54.40;17.50;;;;;;;;;;1031257;28;20026;-76
2022/10/11 01:41:26;;;;;;;42.95;14.48;;;;;;;;;;1030120;28;20552;-76
2022/10/11 01:41:59;;;;;;;32.72;15.98;;;;;;;;;;1030409;28;20026;-76
2022/10/11 01:42:30;;;;;;;35.42;16.23;;;;;;;;;;1029839;28;20030;-76
2022/10/11 01:43:01;;;;;;;35.13;13.40;;;;;;;;;;1030459;28;20072;-76
2022/10/11 01:43:33;;;;;;;51.67;15.20;;;;;;;;;;1028391;28;20022;-76
2022/10/11 01:44:05;;;;;;;37.05;13.10;;;;;;;;;;1029813;28;20081;-76
2022/10/11 01:44:37;;;;;;;43.35;14.70;;;;;;;;;;1030641;28;20066;-76
2022/10/11 01:45:09;;;;;;;30.02;14.13;;;;;;;;;;1031105;28;20128;-76
2022/10/11 01:45:40;;;;;;;23.33;12.38;;;;;;;;;;1032849;28;20660;-76
2022/10/11 01:46:11;;;;;;;28.70;13.73;;;;;;;;;;1034992;28;20065;-76
2022/10/11 01:46:42;;;;;;;44.50;13.40;;;;;;;;;;1030286;28;20113;-76
2022/10/11 01:47:13;;;;;;;53.47;19.35;;;;;;;;;;1031316;28;20029;-75
2022/10/11 01:47:44;;;;;;;54.10;20.05;;;;;;;;;;1030645;28;20038;-76
2022/10/11 01:48:15;;;;;;;53.08;22.42;;;;;;;;;;1030927;28;20023;-76
2022/10/11 01:48:50;;;;;;;60.00;17.92;;;;;;;;;;1032213;28;20042;-76
2022/10/11 01:49:21;;;;;;;87.63;25.45;;;;;;;;;;1031809;28;20022;-75
2022/10/11 01:49:52;;;;;;;70.18;23.42;;;;;;;;;;1032211;28;20065;-76
2022/10/11 01:50:42;;;;;;;70.53;19.50;;;;;;;;;;1031738;28;20043;-76
2022/10/11 01:51:12;;;;;;;53.35;16.02;;;;;;;;;;1031606;28;20501;-76
2022/10/11 01:51:53;;;;;;;46.38;13.35;;;;;;;;;;1034249;28;20041;-76
2022/10/11 01:52:25;;;;;;;47.30;15.27;;;;;;;;;;1023092;28;20058;-77
2022/10/11 01:52:59;;;;;;;47.33;19.13;;;;;;;;;;1021330;28;20030;-76
2022/10/11 01:53:39;;;;;;;60.88;21.75;;;;;;;;;;1025515;28;20023;-77
2022/10/11 01:54:15;;;;;;;68.63;25.77;;;;;;;;;;1026954;28;20039;-75
2022/10/11 01:55:03;;;;;;;94.13;22.55;;;;;;;;;;1028861;28;20033;-75
2022/10/11 01:55:38;;;;;;;60.35;23.98;;;;;;;;;;1032059;28;20069;-77
2022/10/11 01:56:18;;;;;;;64.00;23.35;;;;;;;;;;1027978;28;20050;-76
2022/10/11 01:57:07;;;;;;;49.13;16.98;;;;;;;;;;1031070;28;20407;-75
2022/10/11 01:57:41;;;;;;;55.63;20.08;;;;;;;;;;1030030;28;20022;-76
2022/10/11 01:58:15;;;;;;;55.17;16.10;;;;;;;;;;1031576;28;20023;-75
2022/10/11 01:58:48;;;;;;;43.75;14.50;;;;;;;;;;1031440;28;20049;-76
2022/10/11 01:59:37;;;;;;;38.63;13.02;;;;;;;;;;1029521;28;20019;-77
2022/10/11 02:00:16;;;;;;;23.05;9.48;;;;;;;;;;1029770;28;20032;-77
2022/10/11 02:00:50;;;;;;;40.92;11.00;;;;;;;;;;1030841;28;20479;-76
2022/10/11 02:01:21;;;;;;;39.30;10.38;;;;;;;;;;1031688;28;20366;-77
2022/10/11 02:01:51;;;;;;;26.90;11.02;;;;;;;;;;1031258;28;20026;-75
2022/10/11 02:02:40;;;;;;;32.78;13.10;;;;;;;;;;1030221;28;20549;-76
2022/10/11 02:03:13;;;;;;;33.80;13.05;;;;;;;;;;1030717;28;20514;-76
2022/10/11 02:03:47;;;;;;;26.95;11.75;;;;;;;;;;1030467;28;20033;-76
2022/10/11 02:04:31;;;;;;;25.27;11.70;;;;;;;;;;1030309;28;20536;-75
2022/10/11 02:05:09;;;;;;;35.97;11.13;;;;;;;;;;1028895;28;20034;-75
2022/10/11 02:05:48;;;;;;;23.88;9.40;;;;;;;;;;1027940;28;20505;-75
2022/10/11 02:06:24;;;;;;;34.05;12.23;;;;;;;;;;1029224;28;20083;-75
2022/10/11 02:07:06;;;;;;;26.58;10.43;;;;;;;;;;1031120;28;20034;-75
2022/10/11 02:07:43;;;;;;;35.05;11.85;;;;;;;;;;1031683;28;20033;-75
2022/10/11 02:08:26;;;;;;;30.15;11.60;;;;;;;;;;1029237;28;20022;-76
2022/10/11 02:08:59;;;;;;;30.85;12.70;;;;;;;;;;1032105;28;20077;-76
2022/10/11 02:09:34;;;;;;;20.85;8.50;;;;;;;;;;1030488;28;20030;-76
2022/10/11 02:10:05;;;;;;;36.25;10.60;;;;;;;;;;1030245;28;20032;-76
2022/10/11 02:10:39;;;;;;;36.50;10.63;;;;;;;;;;1030491;28;20037;-76
2022/10/11 02:11:18;;;;;;;32.90;10.90;;;;;;;;;;1028687;28;20030;-77
2022/10/11 02:11:48;;;;;;;19.50;9.00;;;;;;;;;;1030253;28;20030;-76
2022/10/11 02:12:24;;;;;;;26.67;10.40;;;;;;;;;;1029641;28;20022;-77
2022/10/11 02:13:05;;;;;;;21.30;10.95;;;;;;;;;;1030210;28;20049;-77
2022/10/11 02:13:55;;;;;;;23.83;10.20;;;;;;;;;;1030969;28;20033;-76
2022/10/11 02:14:25;;;;;;;;;;;;;;;;;;1030379;28;20062;-76
2022/10/11 02:14:56;;;;;;;25.80;10.00;;;;;;;;;;1032049;28;19920;-76
2022/10/11 02:15:29;;;;;;;42.90;8.43;;;;;;;;;;1026927;28;20050;-76
2022/10/11 02:16:01;;;;;;;21.02;9.80;;;;;;;;;;1027850;28;20957;-76
2022/10/11 02:16:35;;;;;;;25.88;10.80;;;;;;;;;;1026907;28;20384;-76
2022/10/11 02:17:09;;;;;;;28.08;6.93;;;;;;;;;;1026838;28;20508;-74
2022/10/11 02:17:43;;;;;;;29.98;9.35;;;;;;;;;;1029369;28;20508;-75
2022/10/11 02:18:15;;;;;;;19.50;8.25;;;;;;;;;;1029766;28;20024;-75
2022/10/11 02:18:49;;;;;;;31.75;9.05;;;;;;;;;;1031833;28;20033;-75
2022/10/11 02:19:23;;;;;;;25.42;9.18;;;;;;;;;;1031555;28;20029;-75
2022/10/11 02:19:55;;;;;;;23.23;9.93;;;;;;;;;;1030638;28;20022;-75
2022/10/11 02:20:27;;;;;;;31.38;10.38;;;;;;;;;;1031828;28;20080;-76
2022/10/11 02:20:59;;;;;;;22.73;8.15;;;;;;;;;;1032095;28;20375;-76
2022/10/11 02:21:32;;;;;;;24.73;6.38;;;;;;;;;;1032169;28;20026;-76
2022/10/11 02:22:05;;;;;;;23.20;7.28;;;;;;;;;;1031572;28;20085;-77
2022/10/11 02:22:37;;;;;;;47.92;8.38;;;;;;;;;;1032573;28;20192;-76
2022/10/11 02:23:19;;;;;;;24.85;7.95;;;;;;;;;;1031962;28;20045;-76
2022/10/11 02:23:55;;;;;;;15.38;9.40;;;;;;;;;;1030843;28;20030;-77
2022/10/11 02:24:30;;;;;;;18.67;7.85;;;;;;;;;;1031912;28;20033;-77
2022/10/11 02:25:04;;;;;;;14.38;6.68;;;;;;;;;;1030657;28;20026;-76
2022/10/11 02:25:35;;;;;;;24.45;6.35;;;;;;;;;;1032377;28;20032;-76
2022/10/11 02:26:07;;;;;;;28.45;7.85;;;;;;;;;;1031630;28;20049;-76
2022/10/11 02:26:40;;;;;;;26.13;7.55;;;;;;;;;;1032069;28;20069;-74
2022/10/11 02:27:11;;;;;;;20.42;7.35;;;;;;;;;;1030730;28;20138;-76
2022/10/11 02:27:43;;;;;;;16.23;5.78;;;;;;;;;;1028609;28;20065;-76
2022/10/11 02:28:17;;;;;;;20.00;6.97;;;;;;;;;;1026923;28;20050;-76
2022/10/11 02:28:49;;;;;;;29.35;6.40;;;;;;;;;;1029968;28;20034;-76
2022/10/11 02:29:22;;;;;;;25.60;8.43;;;;;;;;;;1031276;28;20497;-77
2022/10/11 02:29:54;;;;;;;21.08;7.05;;;;;;;;;;1031773;28;20027;-76
2022/10/11 02:30:25;;;;;;;22.10;6.57;;;;;;;;;;1029137;28;20060;-77
2022/10/11 02:30:56;;;;;;;18.73;7.53;;;;;;;;;;1032172;28;21215;-75
2022/10/11 02:31:29;;;;;;;24.98;8.50;;;;;;;;;;1029507;28;20117;-74
2022/10/11 02:31:59;;;;;;;17.25;7.78;;;;;;;;;;1032293;28;20041;-74
2022/10/11 02:32:31;;;;;;;11.80;6.25;;;;;;;;;;1031217;28;20041;-74
2022/10/11 02:33:06;;;;;;;36.80;9.38;;;;;;;;;;1031358;28;20041;-77
2022/10/11 02:33:40;;;;;;;20.15;6.40;;;;;;;;;;1030898;28;20031;-76
2022/10/11 02:34:15;;;;;;;16.52;7.00;;;;;;;;;;1029712;28;20061;-75
2022/10/11 02:34:53;;;;;;;25.08;7.38;;;;;;;;;;1029989;28;20116;-76
2022/10/11 02:35:26;;;;;;;30.08;8.20;;;;;;;;;;1026195;28;20113;-76
2022/10/11 02:35:59;;;;;;;17.77;7.85;;;;;;;;;;1026819;28;20035;-75
2022/10/11 02:36:49;;;;;;;21.10;6.57;;;;;;;;;;1026479;28;20546;-75
2022/10/11 02:37:29;;;;;;;16.80;6.68;;;;;;;;;;1029112;28;20049;-75
2022/10/11 02:38:04;;;;;;;33.35;7.93;;;;;;;;;;1027261;28;20034;-75
2022/10/11 02:38:41;;;;;;;27.13;7.05;;;;;;;;;;1026614;28;20022;-76
2022/10/11 02:39:24;;;;;;;19.42;6.75;;;;;;;;;;1026417;28;20049;-77
2022/10/11 02:40:03;;;;;;;21.98;7.53;;;;;;;;;;1029862;28;20019;-78
2022/10/11 02:40:37;;;;;;;19.60;7.70;;;;;;;;;;1030459;28;20031;-77
2022/10/11 02:41:14;;;;;;;24.48;9.30;;;;;;;;;;1030892;28;20026;-77
2022/10/11 02:41:45;;;;;;;19.30;7.72;;;;;;;;;;1031260;28;20589;-76
2022/10/11 02:42:28;;;;;;;18.15;8.73;;;;;;;;;;1032546;28;20069;-77
2022/10/11 02:43:02;;;;;;;21.05;7.30;;;;;;;;;;1033750;28;20060;-76
2022/10/11 02:43:35;;;;;;;18.63;7.40;;;;;;;;;;1032126;28;20026;-76
2022/10/11 02:44:09;;;;;;;20.75;7.78;;;;;;;;;;1028981;28;20022;-76
2022/10/11 02:44:43;;;;;;;15.75;8.18;;;;;;;;;;1029558;28;20111;-76
2022/10/11 02:45:18;;;;;;;12.80;6.38;;;;;;;;;;1027551;28;20502;-76
2022/10/11 02:45:51;;;;;;;18.13;6.72;;;;;;;;;;1029741;28;20037;-77
2022/10/11 02:46:22;;;;;;;20.95;6.90;;;;;;;;;;1030304;28;20502;-76
2022/10/11 02:46:53;;;;;;;18.65;8.32;;;;;;;;;;1031360;28;20479;-76
2022/10/11 02:47:24;;;;;;;38.53;10.40;;;;;;;;;;1028563;28;20027;-75
2022/10/11 02:47:55;;;;;;;25.08;11.55;;;;;;;;;;1029815;28;20030;-76
2022/10/11 02:48:28;;;;;;;15.02;6.35;;;;;;;;;;1035485;23;20771;-76
2022/10/11 02:48:59;;;;;;;21.20;7.05;;;;;;;;;;1025981;28;20027;-76
2022/10/11 02:49:30;;;;;;;17.02;6.68;;;;;;;;;;1026588;28;20155;-76
2022/10/11 02:50:01;;;;;;;24.92;7.80;;;;;;;;;;1026776;28;20093;-76
2022/10/11 02:50:32;;;;;;;16.25;7.40;;;;;;;;;;1026961;28;20197;-75
2022/10/11 02:51:03;;;;;;;23.85;6.90;;;;;;;;;;1026777;28;20134;-76
2022/10/11 02:51:35;;;;;;;17.08;7.90;;;;;;;;;;1026804;28;20493;-75
2022/10/11 02:52:05;;;;;;;26.15;9.98;;;;;;;;;;1025459;28;20026;-75
2022/10/11 02:52:39;;;;;;;32.13;10.85;;;;;;;;;;1019180;29;20210;-76
2022/10/11 02:53:09;;;;;;;29.38;8.32;;;;;;;;;;1021423;29;20020;-76
2022/10/11 02:53:40;;;;;;;13.63;7.32;;;;;;;;;;1021683;28;20039;-75
2022/10/11 02:54:11;;;;;;;20.55;8.52;;;;;;;;;;1021938;29;20023;-75
2022/10/11 02:54:41;;;;;;;34.83;10.68;;;;;;;;;;1027752;28;20047;-75
2022/10/11 02:55:12;;;;;;;17.17;6.72;;;;;;;;;;1026312;28;20081;-76
2022/10/11 02:55:43;;;;;;;16.98;8.55;;;;;;;;;;1023024;28;20038;-76
2022/10/11 02:56:13;;;;;;;26.90;8.38;;;;;;;;;;1025530;28;20026;-76
2022/10/11 02:56:47;;;;;;;28.90;9.38;;;;;;;;;;1024946;28;20587;-75
2022/10/11 02:57:18;;;;;;;28.13;12.23;;;;;;;;;;1026436;28;20075;-75
2022/10/11 02:57:49;;;;;;;25.70;7.63;;;;;;;;;;1027974;28;20019;-75
2022/10/11 02:58:20;;;;;;;20.30;6.70;;;;;;;;;;1022622;28;20023;-75
2022/10/11 02:58:51;;;;;;;10.77;6.55;;;;;;;;;;1024010;28;20023;-75
2022/10/11 02:59:21;;;;;;;28.45;9.65;;;;;;;;;;1026915;28;20364;-75
2022/10/11 02:59:52;;;;;;;16.23;7.85;;;;;;;;;;1026196;28;20034;-75
2022/10/11 03:00:23;;;;;;;15.00;8.77;;;;;;;;;;1027205;28;20098;-77
2022/10/11 03:00:53;;;;;;;16.13;6.53;;;;;;;;;;1037034;22;20022;-76
2022/10/11 03:01:24;;;;;;;25.15;7.07;;;;;;;;;;1028218;28;20452;-76
2022/10/11 03:02:25;;;;;;;15.53;7.77;;;;;;;;;;1037401;23;20049;-75
2022/10/11 03:02:56;;;;;;;22.73;6.82;;;;;;;;;;1037207;28;20034;-76
2022/10/11 03:03:27;;;;;;;13.40;6.68;;;;;;;;;;1038151;28;20022;-76
2022/10/11 03:03:57;;;;;;;11.68;5.82;;;;;;;;;;1037467;28;20101;-77
2022/10/11 03:04:28;;;;;;;21.35;6.70;;;;;;;;;;1036739;28;20048;-77
2022/10/11 03:04:59;;;;;;;22.15;7.55;;;;;;;;;;1038033;28;20056;-76
2022/10/11 03:05:29;;;;;;;22.40;7.97;;;;;;;;;;1036809;28;20052;-76
2022/10/11 03:06:04;;;;;;;24.05;7.97;;;;;;;;;;1036864;28;20029;-75
2022/10/11 03:06:37;;;;;;;22.17;8.68;;;;;;;;;;1038369;28;20089;-76
2022/10/11 03:07:08;;;;;;;18.90;7.78;;;;;;;;;;1036700;28;20026;-76
2022/10/11 03:07:39;;;;;;;17.20;8.40;;;;;;;;;;1038443;28;20021;-77
2022/10/11 03:08:10;;;;;;;14.77;7.63;;;;;;;;;;1030715;28;20125;-77
2022/10/11 03:08:41;;;;;;;21.58;8.35;;;;;;;;;;1030141;28;20049;-76
2022/10/11 03:09:15;;;;;;;29.80;10.48;;;;;;;;;;1031861;28;20046;-76
2022/10/11 03:09:46;;;;;;;66.45;12.65;;;;;;;;;;1033130;28;20030;-76
2022/10/11 03:10:17;;;;;;;34.75;7.00;;;;;;;;;;1035551;28;20030;-76
2022/10/11 03:10:47;;;;;;;18.48;8.52;;;;;;;;;;1036246;28;20029;-76
2022/10/11 03:11:18;;;;;;;36.67;8.18;;;;;;;;;;1036314;28;20451;-75
2022/10/11 03:11:49;;;;;;;23.23;8.20;;;;;;;;;;1035761;28;20026;-75
2022/10/11 03:12:19;;;;;;;28.88;9.00;;;;;;;;;;1033221;28;20385;-76
2022/10/11 03:12:50;;;;;;;14.95;7.72;;;;;;;;;;1035167;28;20445;-78
2022/10/11 03:13:21;;;;;;;27.50;8.20;;;;;;;;;;1031671;28;20022;-76
2022/10/11 03:13:52;;;;;;;19.95;9.55;;;;;;;;;;1035016;28;20026;-76
2022/10/11 03:14:24;;;;;;;26.70;9.02;;;;;;;;;;1031984;28;20030;-75
2022/10/11 03:14:55;;;;;;;24.38;9.98;;;;;;;;;;1038851;28;20062;-76
2022/10/11 03:15:25;;;;;;;19.65;8.02;;;;;;;;;;1038934;28;20029;-76
2022/10/11 03:15:56;;;;;;;25.33;8.10;;;;;;;;;;1034628;28;20093;-76
2022/10/11 03:16:27;;;;;;;23.27;10.00;;;;;;;;;;1034353;28;20030;-75
2022/10/11 03:16:58;;;;;;;21.45;9.82;;;;;;;;;;1034889;28;20017;-76
2022/10/11 03:17:32;;;;;;;34.38;9.32;;;;;;;;;;1035290;28;20034;-76
2022/10/11 03:18:03;;;;;;;23.50;10.05;;;;;;;;;;1032675;28;20576;-75
2022/10/11 03:18:34;;;;;;;33.05;10.07;;;;;;;;;;1036723;28;20063;-75
2022/10/11 03:19:05;;;;;;;17.98;8.55;;;;;;;;;;1029938;28;20022;-75
2022/10/11 03:19:36;;;;;;;11.55;7.40;;;;;;;;;;1033529;28;20125;-76